• Join FlightAware (Why Join?)
  • Login
  • US Flag 
08:26AM EDT


 

Airport Tracker/Info


-or-


 

Live Flight TrackerFlight Track Log ✈ XOJ772 ✈ 03-Jul-2013 ✈ KHPN - KPBI

Flight Track Log - Related Links

Times and Time Zones

All times are in EDT time to prevent confusion due to time zone crossing. See the XOJ772 flight status page for this flight to view local times or setup timezone preferences in your user account.

Time Position Orientation Groundspeed Altitude Reporting Facility
EDT Latitude Longitude Course Direction KTS MPH feet Rate Location/Type
03:46PM 41.0500 -73.7000 217° Southwest 176 203 1,500  Level New York TRACON
03:47PM 41.0167 -73.7333 217° Southwest 228 262 2,000 960 Climbing New York TRACON
03:48PM 41.0667 -73.8000 315° West 244 281 3,500 1,740 Climbing New York TRACON
03:49PM 41.1000 -73.8833 298° West 270 311 5,500 2,220 Climbing New York TRACON
03:50PM 41.0500 -73.9333 217° Southwest 263 303 8,000 1,980 Climbing New York TRACON
03:51PM 40.9833 -73.9667 201° Southwest 273 314 9,500 1,020 Climbing New York TRACON
03:52PM 40.9167 -74.0167 210° Southwest 303 349 10,100 600 Climbing New York TRACON
03:53PM 40.8167 -74.0667 201° Southwest 342 394 10,700 780 Climbing New York TRACON
03:54PM 40.7500 -74.1167 210° Southwest 275 316 11,800 600 Climbing New York TRACON
03:55PM 40.7000 -74.1833 225° Southwest 291 335 12,000 840 Climbing New York TRACON
03:56PM 40.6333 -74.2500 217° Southwest 294 338 13,400 1,620 Climbing New York TRACON
03:57PM 40.5500 -74.2000 155° Southeast 320 368 15,500 960 Climbing New York TRACON
03:59PM 40.4058 -74.2735 201° Southwest  Level Estimated
04:00PM 40.2819 -74.1586 206° Southwest 342 394 17,700  Level Washington Center
04:01PM 40.1889 -74.2147 205° Southwest 361 415 19,400 1,620 Climbing Washington Center
04:02PM 40.1086 -74.2978 218° Southwest 361 415 21,000 1,560 Climbing Washington Center
04:03PM 40.0261 -74.3831 218° Southwest 381 438 22,500 1,380 Climbing Washington Center
04:04PM 39.9417 -74.4683 218° Southwest 388 447 23,800 1,320 Climbing Washington Center
04:05PM 39.8550 -74.5592 219° Southwest 393 452 25,300 1,380 Climbing Washington Center
04:06PM 39.6078 -74.6739 206° Southwest  Level Estimated
04:06PM 39.7661 -74.6467 217° Southwest 398 458 26,700  Level Washington Center
04:07PM 39.6772 -74.7342 217° Southwest 404 465 28,100 1,440 Climbing Washington Center
04:09PM 39.5637 -74.8448 217° Southwest  Level FlightAware Approximate
04:09PM 39.4928 -74.9192 217° Southwest 417 480 31,000  Level Washington Center
04:10PM 39.4017 -75.0114 218° Southwest 417 480 32,400 1,140 Climbing Washington Center
04:11PM 39.3208 -75.0925 218° Southwest 417 480 33,400 1,260 Climbing Washington Center
04:12PM 39.2106 -75.1550 204° Southwest 422 486 34,900 1,560 Climbing Washington Center
04:13PM 39.0939 -75.2039 198° South 432 497 36,500 1,380 Climbing Washington Center
04:14PM 38.9775 -75.2497 197° South 437 503 37,800 1,200 Climbing Washington Center
04:15PM 38.8586 -75.3011 199° South 449 517 39,000 1,200 Climbing Washington Center
04:16PM 38.7378 -75.3494 197° South 455 524 40,200 1,140 Climbing Washington Center
04:17PM 38.6192 -75.4031 199° South 455 524 41,300 900 Climbing Washington Center
04:18PM 38.5025 -75.4483 197° South 455 524 42,100 600 Climbing Washington Center
04:19PM 38.3794 -75.4989 198° South 455 524 42,600 420 Climbing Washington Center
04:20PM 38.2544 -75.5678 203° Southwest 460 529 43,000 180 Climbing Washington Center
04:21PM 38.1378 -75.6367 205° Southwest 460 529 43,000  Level Washington Center
04:22PM 38.0272 -75.7131 209° Southwest 460 529 43,000  Level Washington Center
04:23PM 37.9122 -75.7892 208° Southwest 465 535 43,000  Level Washington Center
04:24PM 37.7911 -75.8544 203° Southwest 465 535 43,000  Level Washington Center
04:25PM 37.6783 -75.9303 208° Southwest 470 541 43,000  Level Washington Center
04:26PM 37.5633 -76.0031 207° Southwest 470 541 43,000 60 Level Washington Center
04:27PM 37.4486 -76.0731 206° Southwest 470 541 43,200 300 Climbing Washington Center
04:28PM 37.3356 -76.1431 206° Southwest 470 541 43,700 480 Climbing Washington Center
04:29PM 37.2164 -76.2047 202° Southwest 470 541 44,200 480 Climbing Washington Center
04:30PM 37.1033 -76.2742 206° Southwest 460 529 44,700 360 Climbing Washington Center
04:31PM 36.9903 -76.3408 205° Southwest 455 524 45,000 120 Climbing Washington Center
04:32PM 36.8772 -76.4097 206° Southwest 455 524 45,000  Level Washington Center
04:33PM 36.7619 -76.4786 206° Southwest 450 518 45,000  Level Washington Center
04:34PM 36.6447 -76.5419 203° Southwest 450 518 45,000  Level Washington Center
04:35PM 36.5253 -76.5947 200° South 455 524 45,000  Level Washington Center
04:36PM 36.4081 -76.6500 201° Southwest 455 524 45,000  Level Washington Center
04:37PM 36.2969 -76.6950 198° South 460 529 45,000  Level Washington Center
04:38PM 36.1756 -76.7500 200° South 465 535 45,000 -60 Level Washington Center
04:39PM 36.0561 -76.8022 199° South 465 535 44,900  Descending Washington Center
04:40PM 35.9344 -76.8542 199° South 465 535 45,000  Climbing Washington Center
04:41PM 35.8150 -76.9061 199° South 465 535 45,000  Level Washington Center
04:42PM 35.6914 -76.9603 200° South 465 535 45,000  Level Washington Center
04:43PM 35.5758 -77.0144 201° Southwest 459 528 45,000  Level Washington Center
04:44PM 35.4542 -77.0658 199° South 459 528 45,000  Level Washington Center
04:45PM 35.3347 -77.1197 200° South 459 528 45,000  Level Washington Center
04:46PM 35.2108 -77.1733 199° South 465 535 45,000  Level Washington Center
04:47PM 35.0911 -77.2267 200° South 465 535 45,000  Level Washington Center
04:48PM 34.9694 -77.2775 199° South 465 535 45,000  Level Washington Center
04:49PM 34.8436 -77.3331 200° South 471 542 45,000  Level Washington Center
04:50PM 34.7111 -77.3936 201° Southwest 471 542 45,000  Level Washington Center
04:51PM 34.5872 -77.4464 199° South 471 542 45,000  Level Washington Center
04:52PM 34.4592 -77.4911 196° South 471 542 45,000  Level Washington Center
04:53PM 34.3356 -77.5286 194° South 465 535 45,000  Level Washington Center
04:54PM 34.2097 -77.5683 195° South 460 529 45,000  Level Washington Center
04:55PM 34.0819 -77.6078 194° South 460 529 45,000  Level Washington Center
04:56PM 34.0000 -77.6325 194° South 463 533 45,000  Level Jacksonville Center
04:57PM 33.8869 -77.6694 195° South 474 545 45,000  Level Jacksonville Center
04:58PM 33.7592 -77.7094 195° South 481 554 45,000  Level Jacksonville Center
04:59PM 33.6150 -77.7578 196° South 481 554 45,000  Level Jacksonville Center
05:00PM 33.5122 -77.7911 195° South 481 554 45,000  Level Jacksonville Center
05:01PM 33.3742 -77.8364 195° South 481 554 45,000  Level Jacksonville Center
05:02PM 33.2422 -77.8761 194° South 481 554 45,000  Level Jacksonville Center
05:03PM 33.1144 -77.9181 195° South 481 554 45,000  Level Jacksonville Center
05:04PM 32.9825 -77.9575 194° South 486 559 45,000  Level Jacksonville Center
05:05PM 32.8483 -77.9994 195° South 486 559 45,000  Level Jacksonville Center
05:06PM 32.7183 -78.0386 194° South 486 559 45,000  Level Jacksonville Center
05:07PM 32.5844 -78.0803 195° South 491 565 45,000  Level Jacksonville Center
05:08PM 32.4483 -78.1219 194° South 491 565 45,000  Level Jacksonville Center
05:09PM 32.3119 -78.1636 194° South 497 572 45,000  Level Jacksonville Center
05:10PM 32.1758 -78.2072 195° South 502 578 45,000  Level Jacksonville Center
05:11PM 32.0394 -78.2461 194° South 509 586 45,000  Level Jacksonville Center
05:12PM 31.9036 -78.2944 197° South 509 586 45,000  Level Jacksonville Center
05:13PM 31.7653 -78.3406 196° South 509 586 45,000  Level Jacksonville Center
05:14PM 31.6311 -78.3836 195° South 509 586 45,000  Level Jacksonville Center
05:15PM 31.4931 -78.4294 196° South 509 586 45,000  Level Jacksonville Center
05:16PM 31.3547 -78.4725 195° South 509 586 45,000  Level Jacksonville Center
05:17PM 31.2206 -78.5153 195° South 509 586 45,000  Level Jacksonville Center
05:18PM 31.0822 -78.5606 196° South 514 592 45,000  Level Jacksonville Center
05:19PM 30.9456 -78.5983 193° South 514 592 45,000  Level Jacksonville Center
05:20PM 30.8053 -78.6433 195° South 514 592 45,000  Level Jacksonville Center
05:21PM 30.6647 -78.6858 195° South 521 600 45,000  Level Jacksonville Center
05:22PM 30.5264 -78.7328 196° South 521 600 45,000  Level Jacksonville Center
05:23PM 30.4197 -78.7725 198° South 512 589 45,000  Level Miami Center
05:24PM 30.2836 -78.8181 196° South 512 589 45,000  Level Miami Center
05:25PM 30.1453 -78.8708 198° South 518 596 45,000  Level Miami Center
05:26PM 30.0131 -78.9306 201° Southwest 518 596 45,000  Level Miami Center
05:27PM 29.8728 -78.9733 195° South 524 603 45,000 -60 Level Miami Center
05:28PM 29.7344 -79.0136 194° South 524 603 44,900 -600 Descending Miami Center
05:29PM 29.5881 -79.0394 189° South 524 603 43,800 -1,200 Descending Miami Center
05:30PM 29.4375 -79.0625 188° South 524 603 42,500 -1,260 Descending Miami Center
05:31PM 29.2850 -79.0881 188° South 550 633 41,300 -1,200 Descending Miami Center
05:32PM 29.1383 -79.1183 190° South 550 633 40,100 -1,260 Descending Miami Center
05:33PM 28.9900 -79.1439 189° South 550 633 38,800 -1,380 Descending Miami Center
05:34PM 28.8372 -79.1714 189° South 550 633 37,400 -1,500 Descending Miami Center
05:35PM 28.6864 -79.1992 189° South 550 633 35,800 -1,860 Descending Miami Center
05:36PM 28.5317 -79.2289 190° South 556 640 33,700 -2,700 Descending Miami Center
05:37PM 28.3767 -79.2564 189° South 567 652 30,400 -3,360 Descending Miami Center
05:38PM 28.2319 -79.2908 192° South 561 646 27,000 -3,180 Descending Miami Center
05:39PM 28.0914 -79.3397 197° South 503 579 24,100 -3,000 Descending Miami Center
05:40PM 27.9669 -79.4097 206° Southwest 503 579 21,100 -3,000 Descending Miami Center
05:41PM 27.8656 -79.4711 208° Southwest 477 549 18,200 -2,520 Descending Miami Center
05:42PM 27.7600 -79.5342 208° Southwest 445 512 16,100 -1,980 Descending Miami Center
05:43PM 27.6439 -79.6042 208° Southwest 429 494 14,300 -1,500 Descending Miami Center
05:44PM 27.5469 -79.6581 206° Southwest 407 468 13,100 -1,140 Descending Miami Center
05:45PM 27.4667 -79.7006 205° Southwest 358 412 12,100 -1,020 Descending Miami Center
05:46PM 27.3969 -79.7386 206° Southwest 323 372 11,100 -1,020 Descending Miami Center
05:47PM 27.3231 -79.7789 206° Southwest 307 353 10,100 -1,080 Descending Miami Center
05:48PM 27.2472 -79.8192 205° Southwest 282 325 9,000 -1,080 Descending Miami Center
05:49PM 27.1775 -79.8569 206° Southwest 282 325 8,000 -840 Descending Miami Center
05:50PM 27.1119 -79.8950 207° Southwest 282 325 7,400 -900 Descending Miami Center
05:51PM 27.0853 -79.9667 247° West 262 302 6,300 -1,140 Descending Miami Center
05:52PM 27.0567 -80.0428 247° West 271 312 5,200 -1,200 Descending Miami Center
05:53PM 27.0011 -80.0925 219° Southwest 242 278 4,000 -1,200 Descending Miami Center
05:54PM 26.9425 -80.0981 185° South 203 234 2,800 -1,020 Descending Miami Center
05:55PM 26.8836 -80.1172 196° South 219 252 2,000 -840 Descending Miami Center
05:57PM 26.7855 -80.2740 265° West  Level FlightAware Approximate
06:04PM 26.6832 -80.0956 110° East  Level Estimated
06:05PM 26.6832 -80.0956 110° East  Level Estimated
06:06PM 26.6832 -80.0956 110° East  Level Estimated
06:07PM 26.6832 -80.0956 110° East  Level Estimated
06:08PM 26.6832 -80.0956 110° East  Level Estimated
06:09PM 26.6832 -80.0956 110° East  Level Estimated